Time;durP1;ratioP1;P1;durP2;ratioP2;P2;SDS_P1;SDS_P2;PMS_P1;PMS_P2;Temp;Humidity;BMP_temperature;BMP_pressure;BME280_temperature;BME280_humidity;BME280_pressure;Samples;Min_cycle;Max_cycle;Signal;HPM_P1;HPM_P2
2023/01/02 05:04:04;;;;;;;1.70;1.60;;;10.70;99.90;;;;;;5927991;23;20238;-66
2023/01/02 05:06:31;;;;;;;4.23;1.73;;;10.70;99.90;;;;;;4977547;28;20741;-66
2023/01/02 05:08:57;;;;;;;1.50;1.40;;;10.70;99.90;;;;;;4976334;28;20666;-66
2023/01/02 05:11:23;;;;;;;1.35;1.25;;;10.60;99.90;;;;;;4977532;28;20198;-67
2023/01/02 05:13:48;;;;;;;2.07;1.97;;;10.60;99.90;;;;;;4976923;28;20279;-67
2023/01/02 05:16:14;;;;;;;1.50;1.40;;;10.60;99.90;;;;;;4968705;28;20220;-67
2023/01/02 05:18:40;;;;;;;1.93;1.83;;;10.60;99.90;;;;;;4969412;28;20207;-66
2023/01/02 05:23:57;;;;;;;1.90;1.75;;;10.60;99.90;;;;;;4977299;28;20289;-67
2023/01/02 05:26:22;;;;;;;1.85;1.75;;;10.60;99.90;;;;;;4977448;28;20184;-68
2023/01/02 05:28:50;;;;;;;1.53;1.20;;;10.60;99.90;;;;;;4977086;28;20577;-67
2023/01/02 05:31:16;;;;;;;3.25;1.80;;;10.60;99.90;;;;;;4970136;28;20587;-66
2023/01/02 05:33:41;;;;;;;1.10;1.10;;;10.60;99.90;;;;;;4956834;28;20206;-67
2023/01/02 05:36:07;;;;;;;2.20;1.53;;;10.60;99.90;;;;;;4957332;28;20179;-66
2023/01/02 05:38:34;;;;;;;1.17;1.00;;;10.50;99.90;;;;;;4957914;28;20173;-66
2023/01/02 05:41:04;;;;;;;1.60;1.50;;;10.50;99.90;;;;;;4956440;28;20211;-67
2023/01/02 05:43:31;;;;;;;1.15;1.15;;;10.40;99.90;;;;;;4957281;28;20177;-67
2023/01/02 05:45:57;;;;;;;1.40;1.30;;;10.40;99.90;;;;;;4973687;28;20208;-66
2023/01/02 05:48:23;;;;;;;1.13;1.03;;;10.40;99.90;;;;;;4956135;28;20208;-67
2023/01/02 05:50:49;;;;;;;1.30;1.20;;;10.30;99.90;;;;;;4957654;28;20433;-66
2023/01/02 05:53:15;;;;;;;1.67;1.57;;;10.40;99.90;;;;;;4957248;28;20535;-65
2023/01/02 05:55:41;;;;;;;1.70;1.60;;;10.40;99.90;;;;;;4957569;28;20192;-66
2023/01/02 05:58:06;;;;;;;1.07;1.07;;;10.30;99.90;;;;;;4958014;28;20193;-66
2023/01/02 06:00:32;;;;;;;1.00;0.97;;;10.40;99.90;;;;;;4976845;28;20180;-66
2023/01/02 06:02:58;;;;;;;2.00;1.37;;;10.40;99.90;;;;;;4975771;28;20697;-66
2023/01/02 06:05:23;;;;;;;1.40;1.30;;;10.40;99.90;;;;;;4975876;28;20207;-67
2023/01/02 06:07:49;;;;;;;2.00;1.20;;;10.40;99.90;;;;;;4964769;28;20255;-66
2023/01/02 06:10:14;;;;;;;1.90;1.77;;;10.30;99.90;;;;;;4957275;28;20225;-67
2023/01/02 06:12:40;;;;;;;1.80;1.40;;;10.40;99.90;;;;;;4959657;28;20243;-67
2023/01/02 06:15:06;;;;;;;1.83;1.73;;;10.30;99.90;;;;;;4974631;28;20735;-66
2023/01/02 06:17:32;;;;;;;1.70;1.60;;;10.30;99.90;;;;;;4976583;28;20180;-66
2023/01/02 06:19:58;;;;;;;0.90;0.90;;;10.30;99.90;;;;;;4972152;28;20256;-66
2023/01/02 06:22:23;;;;;;;1.67;1.10;;;10.30;99.90;;;;;;4963575;28;20267;-67
2023/01/02 06:24:49;;;;;;;1.30;1.20;;;10.40;99.90;;;;;;4975209;28;20686;-67
2023/01/02 06:27:15;;;;;;;2.07;1.63;;;10.50;99.90;;;;;;4976121;28;20174;-67
2023/01/02 06:29:40;;;;;;;2.33;1.80;;;10.60;99.90;;;;;;4976079;28;20259;-66
2023/01/02 06:32:06;;;;;;;2.10;1.43;;;10.60;99.90;;;;;;4976166;28;20173;-66
2023/01/02 06:34:31;;;;;;;1.77;1.63;;;10.70;99.90;;;;;;4975809;28;20758;-66
2023/01/02 06:36:57;;;;;;;1.70;1.60;;;10.70;99.90;;;;;;4964272;28;20179;-66
2023/01/02 06:39:22;;;;;;;2.40;2.20;;;10.80;99.90;;;;;;4965106;28;20544;-66
2023/01/02 06:41:48;;;;;;;1.80;1.50;;;10.70;99.90;;;;;;4958152;28;20180;-66
2023/01/02 06:44:14;;;;;;;2.33;1.40;;;10.80;99.90;;;;;;4957771;28;20294;-65
2023/01/02 06:46:40;;;;;;;2.10;1.70;;;10.70;99.90;;;;;;4969859;28;20184;-68
2023/01/02 06:49:05;;;;;;;1.27;1.23;;;10.70;99.90;;;;;;4970166;28;20460;-64
2023/01/02 06:51:31;;;;;;;2.60;1.20;;;10.70;99.90;;;;;;4958916;28;20176;-66
2023/01/02 06:53:57;;;;;;;4.30;1.50;;;10.70;99.90;;;;;;4975288;28;20662;-63
2023/01/02 06:56:22;;;;;;;1.47;1.37;;;10.70;99.90;;;;;;4975596;28;20530;-63
2023/01/02 06:58:48;;;;;;;2.67;2.00;;;10.70;99.90;;;;;;4975640;28;20197;-63
2023/01/02 07:01:16;;;;;;;1.13;1.13;;;10.80;99.90;;;;;;4963171;28;20422;-64
2023/01/02 07:03:43;;;;;;;3.55;1.70;;;10.80;99.90;;;;;;4955945;28;20583;-65
2023/01/02 07:06:12;;;;;;;2.13;1.25;;;10.80;99.90;;;;;;4971419;28;20594;-69
2023/01/02 07:08:37;;;;;;;1.42;1.25;;;10.80;99.90;;;;;;4975413;28;20208;-69
2023/01/02 07:11:16;;;;;;;1.70;1.30;;;10.90;99.90;;;;;;4974131;28;20177;-70
2023/01/02 07:13:43;;;;;;;1.30;1.20;;;10.80;99.90;;;;;;4973689;28;20227;-68
2023/01/02 07:16:12;;;;;;;1.33;1.20;;;10.90;99.90;;;;;;4975156;28;20173;-70
2023/01/02 07:18:37;;;;;;;1.00;1.00;;;10.90;99.90;;;;;;4967409;28;20187;-67
2023/01/02 07:21:08;;;;;;;1.40;1.30;;;11.00;99.90;;;;;;4968819;28;20268;-69
2023/01/02 07:23:33;;;;;;;2.20;1.30;;;11.00;99.90;;;;;;4972907;28;20196;-66
2023/01/02 07:26:01;;;;;;;1.10;1.00;;;11.00;99.90;;;;;;4969240;28;20188;-67
2023/01/02 07:28:28;;;;;;;1.30;1.27;;;11.00;99.90;;;;;;4974846;28;20954;-68
2023/01/02 07:30:58;;;;;;;1.25;1.15;;;11.00;99.90;;;;;;4974973;28;20183;-70
2023/01/02 07:33:24;;;;;;;1.77;1.35;;;11.00;99.90;;;;;;4973990;28;20696;-67
2023/01/02 07:35:50;;;;;;;1.90;1.13;;;11.00;99.90;;;;;;4972289;28;20220;-69
2023/01/02 07:38:15;;;;;;;1.47;1.37;;;11.00;99.90;;;;;;4955887;28;20175;-66
2023/01/02 07:40:41;;;;;;;1.93;1.83;;;11.00;99.90;;;;;;4955715;28;20209;-65
2023/01/02 07:43:06;;;;;;;1.43;1.33;;;11.00;99.90;;;;;;4968473;28;20188;-65
2023/01/02 07:45:33;;;;;;;2.10;1.50;;;11.10;99.90;;;;;;4970655;28;20190;-68
2023/01/02 07:47:59;;;;;;;3.67;1.33;;;11.10;99.90;;;;;;4959937;28;20213;-64
2023/01/02 07:50:25;;;;;;;2.97;2.30;;;11.00;99.90;;;;;;4956678;28;20186;-63
2023/01/02 07:52:50;;;;;;;1.50;1.40;;;11.00;99.90;;;;;;4963032;28;20510;-64
2023/01/02 07:55:16;;;;;;;1.60;1.50;;;11.00;99.90;;;;;;4955814;28;20200;-64
2023/01/02 07:57:41;;;;;;;2.30;2.20;;;11.00;99.90;;;;;;4957222;28;20180;-64
2023/01/02 08:00:11;;;;;;;1.90;1.70;;;11.00;99.90;;;;;;4965086;28;20200;-64
2023/01/02 08:02:36;;;;;;;1.60;1.50;;;11.00;99.90;;;;;;4962835;28;20185;-70
2023/01/02 08:05:02;;;;;;;2.60;1.80;;;11.00;99.90;;;;;;4969362;28;20213;-67
2023/01/02 08:07:28;;;;;;;2.30;2.13;;;11.10;99.90;;;;;;4964628;28;20189;-69
2023/01/02 08:09:53;;;;;;;1.33;1.23;;;11.00;99.90;;;;;;4957575;28;20201;-69
2023/01/02 08:12:19;;;;;;;3.37;1.67;;;11.00;99.90;;;;;;4971175;28;20184;-69
2023/01/02 08:14:44;;;;;;;2.13;1.90;;;10.90;99.90;;;;;;4978284;28;20196;-67
2023/01/02 08:17:10;;;;;;;1.97;1.87;;;10.90;99.90;;;;;;4965544;28;20180;-67
2023/01/02 08:19:36;;;;;;;1.47;1.20;;;10.90;99.90;;;;;;4959554;28;20199;-66
2023/01/02 08:22:01;;;;;;;2.70;1.63;;;10.90;99.90;;;;;;4958661;28;20182;-67
2023/01/02 08:24:27;;;;;;;1.30;1.20;;;11.00;99.90;;;;;;4966754;28;20221;-67
2023/01/02 08:26:52;;;;;;;1.90;1.80;;;11.10;99.90;;;;;;4965625;28;20177;-68
2023/01/02 08:29:18;;;;;;;1.87;1.63;;;11.20;99.90;;;;;;4959865;28;20205;-68
2023/01/02 08:31:43;;;;;;;1.53;1.20;;;11.30;99.90;;;;;;4961347;28;20608;-66
2023/01/02 08:34:13;;;;;;;1.70;1.60;;;11.40;99.90;;;;;;4978073;28;20192;-66
2023/01/02 08:36:39;;;;;;;1.80;1.70;;;11.50;99.90;;;;;;4975091;28;20178;-70
2023/01/02 08:39:04;;;;;;;1.70;1.60;;;11.60;99.90;;;;;;4963030;28;20181;-67
2023/01/02 08:41:35;;;;;;;1.50;1.40;;;11.70;99.90;;;;;;4964173;28;20421;-69
2023/01/02 08:44:01;;;;;;;2.17;1.93;;;11.80;99.90;;;;;;4967270;28;20203;-68
2023/01/02 08:46:27;;;;;;;2.53;1.60;;;12.00;99.90;;;;;;4967718;28;20428;-69
2023/01/02 08:48:53;;;;;;;2.47;2.30;;;12.00;99.90;;;;;;4990489;28;20198;-68
2023/01/02 08:51:19;;;;;;;2.57;1.70;;;12.10;99.90;;;;;;4975025;28;20411;-68
2023/01/02 08:53:45;;;;;;;1.80;1.70;;;12.20;99.90;;;;;;4978684;28;20857;-65
2023/01/02 08:56:24;;;;;;;2.33;1.97;;;12.30;99.90;;;;;;4971738;28;20189;-63
2023/01/02 08:58:54;;;;;;;5.40;2.03;;;12.40;99.90;;;;;;4959039;28;20207;-65
2023/01/02 09:01:22;;;;;;;2.20;2.10;;;12.50;99.90;;;;;;4958648;28;20434;-64
2023/01/02 09:03:47;;;;;;;2.83;1.77;;;12.70;99.90;;;;;;4968498;28;20457;-66
2023/01/02 09:06:13;;;;;;;3.80;2.43;;;12.90;99.90;;;;;;4967367;28;20458;-64
2023/01/02 09:08:39;;;;;;;8.73;1.80;;;13.20;99.90;;;;;;4958763;28;20274;-65
2023/01/02 09:11:19;;;;;;;1.83;1.73;;;13.40;99.90;;;;;;4959937;28;20185;-66
2023/01/02 09:13:45;;;;;;;2.17;1.23;;;13.70;99.90;;;;;;4966594;28;20184;-63
2023/01/02 09:16:11;;;;;;;4.30;2.03;;;14.10;99.90;;;;;;4968785;28;20430;-65
2023/01/02 09:18:38;;;;;;;1.83;1.73;;;14.50;99.90;;;;;;4976702;28;20181;-64
2023/01/02 09:21:04;;;;;;;1.77;1.67;;;14.80;99.90;;;;;;4970188;28;20429;-64
2023/01/02 09:23:31;;;;;;;8.87;8.27;;;15.10;99.90;;;;;;4975837;28;20423;-64
2023/01/02 09:26:01;;;;;;;4.20;3.90;;;15.40;99.90;;;;;;4975891;28;20422;-64
2023/01/02 09:28:27;;;;;;;3.97;3.00;;;15.60;99.90;;;;;;4976019;28;20458;-64
2023/01/02 09:30:53;;;;;;;7.03;2.40;;;15.80;99.70;;;;;;4977411;28;20406;-64
2023/01/02 09:33:19;;;;;;;2.00;1.80;;;16.00;99.10;;;;;;4975407;28;20447;-63
2023/01/02 09:35:45;;;;;;;3.90;2.20;;;16.20;97.60;;;;;;4962458;28;20797;-64
2023/01/02 09:38:10;;;;;;;1.30;1.20;;;16.30;97.20;;;;;;4960018;28;20478;-64
2023/01/02 09:40:44;;;;;;;1.70;1.60;;;16.60;97.00;;;;;;4977193;28;20648;-64
2023/01/02 09:43:11;;;;;;;2.17;1.93;;;17.00;96.20;;;;;;4967228;28;20982;-63
2023/01/02 09:45:42;;;;;;;2.87;1.40;;;17.50;95.10;;;;;;4974999;28;20500;-63
2023/01/02 09:48:17;;;;;;;1.63;1.53;;;18.00;93.40;;;;;;4971741;28;20467;-65
2023/01/02 09:50:47;;;;;;;7.90;1.73;;;18.30;92.30;;;;;;4959620;28;20782;-63
2023/01/02 09:53:13;;;;;;;3.80;1.40;;;18.30;91.60;;;;;;4973262;28;20770;-62
2023/01/02 09:55:48;;;;;;;3.13;1.70;;;18.10;90.60;;;;;;4975131;28;20834;-63
2023/01/02 09:58:23;;;;;;;2.30;1.70;;;18.00;90.90;;;;;;4970917;28;20420;-66
2023/01/02 10:00:50;;;;;;;25.67;15.33;;;17.90;90.90;;;;;;4974590;28;20454;-67
2023/01/02 10:03:45;;;;;;;1.63;1.47;;;17.70;90.70;;;;;;4965497;28;20437;-64
2023/01/02 10:06:21;;;;;;;2.47;1.93;;;17.70;91.10;;;;;;4957239;28;20445;-62
2023/01/02 10:09:28;;;;;;;1.33;1.23;;;17.60;90.90;;;;;;4957648;28;20509;-62
2023/01/02 10:12:10;;;;;;;1.63;1.33;;;17.70;90.90;;;;;;4957508;28;20823;-62
2023/01/02 10:14:57;;;;;;;7.37;1.97;;;17.80;90.70;;;;;;4958708;28;20905;-62
2023/01/02 10:17:27;;;;;;;1.20;1.20;;;17.70;90.70;;;;;;4963066;28;20424;-61
2023/01/02 10:20:05;;;;;;;2.60;1.90;;;17.70;90.80;;;;;;4958894;28;20432;-61
2023/01/02 10:22:37;;;;;;;1.70;1.37;;;17.90;91.00;;;;;;4957040;28;20447;-62
2023/01/02 10:25:22;;;;;;;1.90;1.50;;;18.20;90.80;;;;;;4956841;28;20447;-62
2023/01/02 10:28:20;;;;;;;2.17;1.37;;;18.50;90.40;;;;;;4969912;28;20767;-62
2023/01/02 10:30:52;;;;;;;2.33;1.57;;;19.00;89.00;;;;;;4956674;28;20459;-62
2023/01/02 10:33:30;;;;;;;2.00;1.43;;;19.40;88.60;;;;;;4956691;28;20409;-63
2023/01/02 10:36:02;;;;;;;2.10;2.00;;;19.70;87.50;;;;;;4956839;28;20460;-63
2023/01/02 10:38:38;;;;;;;2.10;1.73;;;19.90;86.60;;;;;;4965559;28;20430;-62
2023/01/02 10:41:04;;;;;;;1.83;1.10;;;20.00;84.90;;;;;;4961947;28;20460;-62
2023/01/02 10:43:33;;;;;;;3.67;1.40;;;20.10;85.90;;;;;;4956334;28;20412;-62
2023/01/02 10:46:02;;;;;;;2.10;1.57;;;20.10;84.20;;;;;;4956710;28;20418;-61
2023/01/02 10:48:31;;;;;;;3.30;1.20;;;20.20;84.70;;;;;;4955236;28;20459;-61
2023/01/02 10:51:02;;;;;;;2.80;1.50;;;20.20;85.00;;;;;;4966635;28;20830;-61
2023/01/02 10:53:35;;;;;;;2.70;1.10;;;20.30;84.60;;;;;;4962942;28;20479;-61
2023/01/02 10:56:14;;;;;;;2.20;2.00;;;20.50;84.10;;;;;;4965393;28;20432;-61
2023/01/02 10:58:48;;;;;;;3.37;1.87;;;20.60;83.40;;;;;;4956367;28;20410;-60
2023/01/02 11:01:19;;;;;;;2.40;1.80;;;20.80;82.90;;;;;;4956426;28;20407;-61
2023/01/02 11:04:05;;;;;;;1.90;1.37;;;21.00;81.10;;;;;;4955846;28;20420;-62
2023/01/02 11:06:31;;;;;;;1.70;1.60;;;21.10;81.00;;;;;;4958126;28;20441;-62
2023/01/02 11:09:17;;;;;;;2.43;1.80;;;21.10;80.60;;;;;;4956217;28;20460;-61
2023/01/02 11:11:59;;;;;;;4.40;1.90;;;21.10;80.40;;;;;;4957272;28;20436;-69
2023/01/02 11:14:31;;;;;;;2.10;1.90;;;21.00;80.40;;;;;;4954336;28;20576;-68
2023/01/02 11:17:07;;;;;;;4.00;1.83;;;20.90;80.80;;;;;;4956555;28;20437;-68
2023/01/02 11:19:45;;;;;;;9.23;2.07;;;20.50;79.60;;;;;;4956296;28;20720;-69
2023/01/02 11:22:14;;;;;;;7.10;2.23;;;20.20;79.50;;;;;;4973828;28;20821;-68
2023/01/02 11:24:58;;;;;;;6.93;1.60;;;19.80;80.60;;;;;;4974593;28;20908;-70
2023/01/02 11:27:30;;;;;;;3.03;2.10;;;19.50;81.70;;;;;;4975442;28;20388;-63
2023/01/02 11:29:56;;;;;;;1.47;1.47;;;19.30;82.10;;;;;;4974719;28;20961;-68
2023/01/02 11:32:26;;;;;;;2.30;1.27;;;19.20;81.70;;;;;;4954371;28;20432;-67
2023/01/02 11:35:01;;;;;;;3.50;1.80;;;19.10;82.00;;;;;;4954489;29;20440;-68
2023/01/02 11:37:27;;;;;;;2.03;1.43;;;19.00;81.90;;;;;;4960574;28;20436;-68
2023/01/02 11:40:23;;;;;;;5.63;1.80;;;19.00;82.90;;;;;;4955610;28;20439;-68
2023/01/02 11:45:36;;;;;;;2.60;2.40;;;19.00;83.20;;;;;;4955902;29;20969;-69
2023/01/02 11:48:09;;;;;;;1.27;1.17;;;19.00;82.10;;;;;;4955285;28;20954;-68
2023/01/02 11:50:36;;;;;;;1.30;1.20;;;18.90;82.40;;;;;;4955460;28;20428;-67
2023/01/02 11:53:11;;;;;;;2.60;1.40;;;18.90;83.20;;;;;;4957717;28;20436;-66
2023/01/02 11:55:45;;;;;;;2.07;1.77;;;18.90;83.50;;;;;;4953631;28;20432;-68
2023/01/02 11:58:22;;;;;;;2.90;1.80;;;18.90;83.60;;;;;;4955647;28;20416;-67
2023/01/02 12:00:52;;;;;;;1.97;1.50;;;19.00;82.30;;;;;;4954708;28;20437;-66
2023/01/02 12:03:23;;;;;;;6.87;3.33;;;18.90;82.50;;;;;;4954998;28;20405;-66
2023/01/02 12:06:09;;;;;;;1.30;1.20;;;18.90;83.10;;;;;;4955240;28;20452;-67
2023/01/02 12:09:02;;;;;;;1.63;1.53;;;18.90;82.80;;;;;;4967292;28;20462;-68
2023/01/02 12:11:40;;;;;;;3.03;2.20;;;18.90;83.40;;;;;;4955405;28;20423;-66
2023/01/02 12:14:26;;;;;;;3.70;1.60;;;18.90;83.70;;;;;;4955195;28;20431;-66
2023/01/02 12:17:02;;;;;;;2.93;1.40;;;19.00;83.40;;;;;;4955345;28;20505;-66
2023/01/02 12:19:55;;;;;;;3.70;2.40;;;18.90;83.50;;;;;;4971821;28;21084;-66
2023/01/02 12:22:32;;;;;;;3.17;1.73;;;18.90;83.10;;;;;;4965968;28;20792;-66
2023/01/02 12:25:30;;;;;;;2.47;1.70;;;18.90;83.30;;;;;;4953792;28;20432;-67
2023/01/02 12:28:11;;;;;;;5.13;1.83;;;18.90;83.90;;;;;;4970961;28;20420;-67
2023/01/02 12:30:47;;;;;;;2.43;1.70;;;18.80;85.10;;;;;;4974692;28;20407;-68
2023/01/02 12:33:34;;;;;;;2.60;1.60;;;18.80;85.60;;;;;;4966756;28;20455;-68
2023/01/02 12:36:22;;;;;;;2.63;1.97;;;18.80;85.50;;;;;;4966483;28;20487;-68
2023/01/02 12:39:12;;;;;;;1.30;1.20;;;18.70;85.80;;;;;;4955520;28;20843;-69
2023/01/02 12:41:38;;;;;;;1.37;1.27;;;18.60;85.00;;;;;;4959413;28;20930;-68
2023/01/02 12:44:37;;;;;;;2.87;1.13;;;18.50;84.30;;;;;;4962965;28;20633;-68
2023/01/02 12:47:32;;;;;;;2.53;1.20;;;18.50;84.80;;;;;;4966700;28;20177;-67
2023/01/02 12:50:24;;;;;;;1.93;1.53;;;18.30;85.60;;;;;;4970637;28;20516;-67
2023/01/02 12:53:21;;;;;;;4.17;1.70;;;18.20;86.00;;;;;;4964849;28;20770;-68
2023/01/02 12:56:03;;;;;;;3.13;2.20;;;18.30;86.10;;;;;;4955230;28;20436;-68
2023/01/02 12:58:32;;;;;;;2.73;1.50;;;18.20;86.50;;;;;;4954863;28;20412;-68
2023/01/02 13:01:03;;;;;;;3.43;1.37;;;18.30;86.90;;;;;;4957070;28;20416;-68
2023/01/02 13:03:36;;;;;;;1.90;1.80;;;18.30;86.70;;;;;;4972726;28;20431;-67
2023/01/02 13:06:23;;;;;;;2.70;1.87;;;18.30;87.00;;;;;;4963776;28;20470;-68
2023/01/02 13:09:19;;;;;;;2.27;1.67;;;18.20;87.40;;;;;;4965400;28;20474;-68
2023/01/02 13:12:02;;;;;;;5.23;1.80;;;18.20;87.20;;;;;;4971298;28;20566;-67
2023/01/02 13:15:11;;;;;;;3.10;1.60;;;18.10;87.20;;;;;;4972981;28;20959;-67
2023/01/02 13:17:49;;;;;;;2.27;1.87;;;18.00;87.50;;;;;;4962885;28;20434;-69
2023/01/02 13:20:32;;;;;;;2.60;2.03;;;17.90;87.80;;;;;;4962137;28;20466;-68
2023/01/02 13:23:30;;;;;;;1.90;1.80;;;17.80;88.00;;;;;;4963604;28;20431;-68
2023/01/02 13:26:04;;;;;;;2.53;2.27;;;17.80;88.70;;;;;;4981085;28;20416;-68
2023/01/02 13:28:30;;;;;;;4.77;1.63;;;17.70;88.40;;;;;;4957617;28;20475;-68
2023/01/02 13:31:04;;;;;;;1.70;1.60;;;17.70;88.70;;;;;;4966706;28;20429;-69
2023/01/02 13:33:39;;;;;;;4.63;3.00;;;17.70;88.70;;;;;;4966594;28;20192;-64
2023/01/02 13:36:35;;;;;;;2.00;1.40;;;17.60;89.30;;;;;;4970831;28;20437;-62
2023/01/02 13:39:16;;;;;;;2.33;2.13;;;17.60;89.40;;;;;;4973938;28;20430;-62
2023/01/02 13:44:46;;;;;;;2.47;2.27;;;17.60;89.50;;;;;;4957590;28;20581;-63
2023/01/02 13:47:35;;;;;;;5.73;1.70;;;17.60;90.00;;;;;;4957563;28;20490;-63
2023/01/02 13:50:27;;;;;;;3.50;2.30;;;17.60;90.20;;;;;;4967252;28;20540;-67
2023/01/02 13:52:58;;;;;;;3.33;1.50;;;17.60;90.30;;;;;;4958024;28;20426;-67
2023/01/02 13:55:40;;;;;;;2.07;1.83;;;17.60;90.20;;;;;;4961545;28;20972;-67
2023/01/02 13:58:12;;;;;;;3.10;1.90;;;17.60;90.20;;;;;;4968383;28;20878;-67
2023/01/02 14:00:46;;;;;;;2.73;1.57;;;17.50;90.20;;;;;;4966886;28;20422;-67
2023/01/02 14:03:24;;;;;;;3.50;1.60;;;17.40;90.50;;;;;;4969791;28;20491;-67
2023/01/02 14:05:57;;;;;;;2.70;1.70;;;17.40;90.80;;;;;;4968003;28;20470;-67
2023/01/02 14:08:26;;;;;;;1.30;1.30;;;17.40;90.50;;;;;;4969743;28;20469;-68
2023/01/02 14:11:18;;;;;;;1.70;1.60;;;17.30;90.40;;;;;;4963513;28;20426;-68
2023/01/02 14:13:53;;;;;;;5.77;1.90;;;17.20;90.40;;;;;;4952439;28;20429;-67
2023/01/02 14:16:21;;;;;;;1.70;1.50;;;17.20;90.60;;;;;;4956951;28;20434;-67
2023/01/02 14:19:11;;;;;;;2.27;1.60;;;17.20;90.80;;;;;;4967977;28;20437;-67
2023/01/02 14:21:56;;;;;;;5.20;1.47;;;17.10;90.90;;;;;;4958037;28;20517;-67
2023/01/02 14:24:40;;;;;;;3.83;1.67;;;17.10;91.30;;;;;;4960321;28;20454;-68
2023/01/02 14:27:32;;;;;;;2.93;1.50;;;17.00;91.80;;;;;;4972561;28;20454;-67
2023/01/02 14:30:02;;;;;;;2.63;1.90;;;16.90;92.10;;;;;;4972462;28;20463;-67
2023/01/02 14:32:33;;;;;;;3.40;2.00;;;16.80;92.10;;;;;;4966223;28;20436;-68
2023/01/02 14:35:13;;;;;;;2.07;1.33;;;16.70;92.40;;;;;;4975617;28;20415;-67
2023/01/02 14:37:54;;;;;;;6.67;1.93;;;16.70;92.40;;;;;;4961036;28;20954;-67
2023/01/02 14:40:23;;;;;;;2.10;1.93;;;16.60;92.80;;;;;;4956660;28;20453;-67
2023/01/02 14:46:01;;;;;;;2.10;1.37;;;16.50;93.00;;;;;;4975597;28;20442;-67
2023/01/02 14:48:46;;;;;;;29.37;3.30;;;16.40;93.20;;;;;;4974783;28;20519;-68
2023/01/02 14:51:20;;;;;;;4.10;2.20;;;16.20;93.80;;;;;;4975011;28;20423;-67
2023/01/02 14:53:53;;;;;;;2.97;1.60;;;16.10;94.20;;;;;;4974978;28;20414;-66
2023/01/02 14:56:24;;;;;;;3.43;1.70;;;16.10;94.20;;;;;;4974330;28;20411;-66
2023/01/02 14:58:51;;;;;;;5.13;2.00;;;16.00;94.70;;;;;;4959595;28;20421;-68
2023/01/02 15:01:20;;;;;;;2.30;1.97;;;15.90;94.70;;;;;;4960824;28;20421;-67
2023/01/02 15:04:10;;;;;;;3.13;1.93;;;15.80;94.70;;;;;;4961945;28;20867;-68
2023/01/02 15:06:41;;;;;;;7.13;4.67;;;15.70;94.80;;;;;;4975556;28;20435;-67
2023/01/02 15:09:35;;;;;;;6.37;2.37;;;15.70;94.90;;;;;;4973778;28;20459;-68
2023/01/02 15:14:58;;;;;;;3.80;2.40;;;15.50;95.40;;;;;;4955862;29;20432;-67
2023/01/02 15:17:24;;;;;;;9.93;2.20;;;15.40;95.70;;;;;;4964250;28;20419;-66
2023/01/02 15:19:53;;;;;;;3.87;1.93;;;15.30;96.00;;;;;;4975062;28;20190;-67
2023/01/02 15:22:23;;;;;;;5.00;2.30;;;15.30;96.10;;;;;;4971071;28;20447;-67
2023/01/02 15:24:50;;;;;;;2.73;1.77;;;15.20;96.00;;;;;;4962525;28;20440;-68
2023/01/02 15:27:25;;;;;;;2.93;2.20;;;15.20;96.20;;;;;;4955608;28;20433;-67
2023/01/02 15:29:58;;;;;;;3.10;2.17;;;15.10;96.30;;;;;;4967497;28;20463;-67
2023/01/02 15:32:30;;;;;;;2.80;2.30;;;15.10;96.50;;;;;;4955859;28;20779;-68
2023/01/02 15:35:20;;;;;;;2.70;2.10;;;15.00;96.60;;;;;;4964095;28;20438;-68
2023/01/02 15:37:47;;;;;;;2.30;1.80;;;14.90;96.70;;;;;;4975102;28;20404;-67
2023/01/02 15:40:34;;;;;;;2.00;1.60;;;14.90;96.30;;;;;;4965631;28;20977;-68
2023/01/02 15:45:57;;;;;;;2.37;1.47;;;14.90;95.70;;;;;;4955564;29;20944;-68
2023/01/02 15:48:28;;;;;;;1.50;1.40;;;15.00;95.50;;;;;;4961027;28;20551;-67
2023/01/02 15:50:56;;;;;;;1.33;1.30;;;15.00;95.60;;;;;;4955782;28;20408;-67
2023/01/02 15:53:27;;;;;;;5.70;1.40;;;15.00;95.50;;;;;;4955153;28;20887;-67
2023/01/02 15:55:53;;;;;;;2.73;1.17;;;15.00;95.70;;;;;;4955453;28;20433;-69
2023/01/02 15:58:33;;;;;;;2.13;1.30;;;15.00;95.60;;;;;;4965651;28;20431;-67
2023/01/02 16:01:15;;;;;;;1.97;1.50;;;15.00;95.90;;;;;;4974582;28;20434;-68
2023/01/02 16:03:44;;;;;;;1.47;1.30;;;15.00;96.30;;;;;;4966676;28;20449;-68
2023/01/02 16:06:32;;;;;;;1.80;1.67;;;15.00;96.60;;;;;;4964558;28;20451;-68
2023/01/02 16:09:00;;;;;;;4.10;1.40;;;14.90;96.80;;;;;;4961612;28;20464;-67
2023/01/02 16:11:27;;;;;;;6.90;1.50;;;14.90;97.00;;;;;;4964019;28;20431;-67
2023/01/02 16:14:20;;;;;;;5.17;2.87;;;14.80;97.10;;;;;;4960038;28;20441;-67
2023/01/02 16:16:54;;;;;;;11.37;10.40;;;14.80;97.40;;;;;;4964941;28;20422;-68
2023/01/02 16:19:36;;;;;;;10.93;9.87;;;14.70;97.60;;;;;;4964024;28;20448;-66
2023/01/02 16:22:23;;;;;;;3.87;2.40;;;14.60;97.70;;;;;;4956117;28;20431;-66
2023/01/02 16:25:06;;;;;;;3.27;1.57;;;14.60;97.80;;;;;;4964023;28;20450;-67
2023/01/02 16:27:40;;;;;;;1.63;1.53;;;14.50;98.00;;;;;;4960213;28;20435;-68
2023/01/02 16:30:39;;;;;;;1.53;1.37;;;14.50;98.00;;;;;;4960118;28;20548;-68
2023/01/02 16:33:23;;;;;;;3.67;2.50;;;14.50;98.10;;;;;;4949222;28;20439;-66
2023/01/02 16:36:08;;;;;;;8.73;2.37;;;14.40;98.50;;;;;;4954924;28;20440;-67
2023/01/02 16:38:50;;;;;;;2.03;1.23;;;14.40;98.90;;;;;;4963829;28;20442;-71
2023/01/02 16:41:46;;;;;;;1.80;1.30;;;14.40;99.10;;;;;;4969219;28;20793;-66
2023/01/02 16:44:18;;;;;;;2.40;1.70;;;14.30;99.30;;;;;;4954158;28;20451;-69
2023/01/02 16:46:47;;;;;;;1.00;1.00;;;14.30;99.50;;;;;;4968704;28;20778;-69
2023/01/02 16:49:21;;;;;;;2.63;1.50;;;14.20;99.70;;;;;;4967562;28;20466;-68
2023/01/02 16:51:49;;;;;;;3.40;1.60;;;14.20;99.90;;;;;;4962623;28;20999;-68
2023/01/02 16:54:18;;;;;;;2.07;1.20;;;14.20;99.90;;;;;;4966628;28;20450;-68
2023/01/02 16:56:44;;;;;;;2.53;1.97;;;14.10;99.90;;;;;;4965171;28;20873;-67
2023/01/02 16:59:10;;;;;;;1.37;1.27;;;14.10;99.90;;;;;;4958537;28;20431;-69
2023/01/02 17:01:36;;;;;;;1.60;1.50;;;14.10;99.90;;;;;;4958541;28;20427;-65
2023/01/02 17:04:01;;;;;;;1.93;1.77;;;14.00;99.90;;;;;;4959655;28;20569;-69
2023/01/02 17:06:27;;;;;;;4.70;2.33;;;14.00;99.90;;;;;;4968147;28;20658;-66
2023/01/02 17:08:52;;;;;;;1.97;1.77;;;14.00;99.90;;;;;;4964792;28;20206;-67
2023/01/02 17:11:21;;;;;;;1.50;1.40;;;14.00;99.90;;;;;;4968415;28;20176;-67
2023/01/02 17:13:47;;;;;;;3.43;3.00;;;14.00;99.90;;;;;;4966798;28;20190;-67
2023/01/02 17:16:14;;;;;;;1.63;1.53;;;14.00;99.90;;;;;;4957945;28;20433;-66
2023/01/02 17:18:39;;;;;;;3.90;2.97;;;13.90;99.90;;;;;;4968320;28;20759;-69
2023/01/02 17:21:05;;;;;;;1.97;1.87;;;13.90;99.90;;;;;;4967934;28;20502;-67
2023/01/02 17:23:31;;;;;;;5.23;1.70;;;13.90;99.90;;;;;;4959672;28;20287;-67
2023/01/02 17:25:57;;;;;;;1.60;1.50;;;13.90;99.90;;;;;;4967768;28;20427;-72
2023/01/02 17:28:23;;;;;;;5.83;1.70;;;13.80;99.90;;;;;;4965748;28;20209;-65
2023/01/02 17:30:48;;;;;;;3.57;2.17;;;13.80;99.90;;;;;;4968042;28;20762;-73
2023/01/02 17:33:15;;;;;;;2.10;1.30;;;13.80;99.90;;;;;;4965059;28;20634;-71
2023/01/02 17:35:41;;;;;;;5.63;2.07;;;13.80;99.90;;;;;;4957545;28;20201;-67
2023/01/02 17:38:06;;;;;;;3.13;1.60;;;13.80;99.90;;;;;;4967233;28;20439;-66
2023/01/02 17:40:32;;;;;;;3.20;1.50;;;13.80;99.90;;;;;;4960339;28;20197;-66
2023/01/02 17:42:58;;;;;;;3.33;1.77;;;13.80;99.90;;;;;;4962070;28;20427;-67
2023/01/02 17:45:24;;;;;;;2.07;1.70;;;13.80;99.90;;;;;;4976161;28;20522;-65
2023/01/02 17:47:51;;;;;;;2.00;1.80;;;13.80;99.90;;;;;;4956454;28;20172;-65
2023/01/02 17:50:17;;;;;;;4.33;1.80;;;13.80;99.90;;;;;;4956057;28;20211;-67
2023/01/02 17:52:42;;;;;;;1.93;1.57;;;13.80;99.90;;;;;;4962749;28;20407;-64
2023/01/02 17:55:08;;;;;;;3.03;1.63;;;13.70;99.90;;;;;;4965332;28;20199;-66
2023/01/02 17:57:38;;;;;;;2.70;1.73;;;13.70;99.90;;;;;;4970962;28;20184;-67
2023/01/02 18:00:08;;;;;;;4.13;2.10;;;13.70;99.90;;;;;;4986682;28;20437;-67
2023/01/02 18:02:34;;;;;;;4.80;2.17;;;13.60;99.90;;;;;;4971357;28;20422;-69
2023/01/02 18:05:00;;;;;;;7.97;4.60;;;13.60;99.90;;;;;;4961514;28;20483;-68
2023/01/02 18:07:26;;;;;;;2.77;2.47;;;13.50;99.90;;;;;;4964595;28;20975;-68
2023/01/02 18:09:52;;;;;;;2.37;2.23;;;13.50;99.90;;;;;;4960790;28;20472;-68
2023/01/02 18:12:17;;;;;;;3.30;2.83;;;13.50;99.90;;;;;;4975477;28;20244;-68
2023/01/02 18:14:44;;;;;;;2.23;2.13;;;13.50;99.90;;;;;;4971509;28;20203;-68
2023/01/02 18:17:16;;;;;;;2.60;2.40;;;13.50;99.90;;;;;;4973410;28;20567;-68
2023/01/02 18:19:43;;;;;;;4.40;3.30;;;13.40;99.90;;;;;;4961091;28;20505;-68
2023/01/02 18:22:23;;;;;;;2.27;2.07;;;13.40;99.90;;;;;;4962859;28;20416;-70
2023/01/02 18:24:50;;;;;;;2.20;1.73;;;13.40;99.90;;;;;;4966276;28;20454;-69
2023/01/02 18:27:26;;;;;;;4.90;2.20;;;13.40;99.90;;;;;;4967090;28;20553;-70
2023/01/02 18:30:11;;;;;;;2.00;1.30;;;13.30;99.90;;;;;;4967382;28;20925;-71
2023/01/02 18:32:39;;;;;;;0.90;0.90;;;13.20;99.90;;;;;;4960032;28;20445;-69